createdAt,value
2024-02-18T00:02:04.737Z,100787.53
2024-02-18T00:04:51.552Z,100769.94
2024-02-18T00:07:38.064Z,100774.25
2024-02-18T00:10:24.385Z,100748.41
2024-02-18T00:13:10.836Z,100771.44
2024-02-18T00:15:57.593Z,100791.78
2024-02-18T00:18:44.561Z,100784.09
2024-02-18T00:21:31.053Z,100797.22
2024-02-18T00:24:17.936Z,100796.34
2024-02-18T00:27:04.809Z,100786.72
2024-02-18T00:29:51.253Z,100796.34
2024-02-18T00:32:37.919Z,100751.59
2024-02-18T00:35:24.344Z,100756.25
2024-02-18T00:38:11.062Z,100770.63
2024-02-18T00:40:58.088Z,100784.25
2024-02-18T00:43:44.702Z,100740.59
2024-02-18T00:46:42.122Z,100764.31
2024-02-18T00:49:35.683Z,100705.97
2024-02-18T00:52:23.050Z,100748.28
2024-02-18T00:55:09.968Z,100749.81
2024-02-18T00:57:56.853Z,100744.56
2024-02-18T01:00:43.520Z,100781.88
2024-02-18T01:03:30.005Z,100758.69
2024-02-18T01:06:16.648Z,100723.56
2024-02-18T01:09:03.706Z,100770.69
2024-02-18T01:11:51.960Z,100737.84
2024-02-18T01:14:38.491Z,100764.63
2024-02-18T01:17:24.879Z,100709.03
2024-02-18T01:20:11.554Z,100776.66
2024-02-18T01:22:58.104Z,100759.75
2024-02-18T01:25:44.590Z,100753.38
2024-02-18T01:28:31.050Z,100778.19
2024-02-18T01:31:17.416Z,100747.63
2024-02-18T01:34:04.155Z,100687.16
2024-02-18T01:36:50.572Z,100748.31
2024-02-18T01:39:37.141Z,100734.63
2024-02-18T01:42:23.694Z,100697.22
2024-02-18T01:45:13.453Z,100728.84
2024-02-18T01:48:01.570Z,100733.97
2024-02-18T01:50:48.371Z,100742.59
2024-02-18T01:53:36.237Z,100765.88
2024-02-18T01:56:23.936Z,100724.31
2024-02-18T01:59:10.917Z,100767.03
2024-02-18T02:01:58.202Z,100732.28
2024-02-18T02:04:46.223Z,100726.91
2024-02-18T02:07:33.003Z,100695.34
2024-02-18T02:10:20.191Z,100698.53
2024-02-18T02:13:07.156Z,100697.06
2024-02-18T02:15:53.827Z,100694.56
2024-02-18T02:18:40.321Z,100732.63
2024-02-18T02:21:27.422Z,100729.09
2024-02-18T02:24:13.778Z,100689.97
2024-02-18T02:27:04.567Z,100727.84
2024-02-18T02:29:52.396Z,100689.59
2024-02-18T02:32:39.289Z,100675.34
2024-02-18T02:35:29.193Z,100704.75
2024-02-18T02:38:15.716Z,100694.50
2024-02-18T02:41:03.947Z,100703.50
2024-02-18T02:43:50.094Z,100725.91
2024-02-18T02:46:36.598Z,100677.75
2024-02-18T02:49:23.095Z,100749.09
2024-02-18T02:52:09.603Z,100703.09
2024-02-18T02:54:55.988Z,100714.91
2024-02-18T02:57:42.718Z,100730.63
2024-02-18T03:00:29.565Z,100707.75
2024-02-18T03:03:17.593Z,100738.94
2024-02-18T03:06:04.411Z,100723.41
2024-02-18T03:08:50.859Z,100700.38
2024-02-18T03:11:37.156Z,100703.66
2024-02-18T03:14:23.791Z,100700.06
2024-02-18T03:17:10.152Z,100682.56
2024-02-18T03:19:57.499Z,100717.88
2024-02-18T03:22:44.287Z,100657.28
2024-02-18T03:25:30.673Z,100711.09
2024-02-18T03:28:17.147Z,100705.31
2024-02-18T03:31:03.975Z,100657.78
2024-02-18T03:33:50.813Z,100672.69
2024-02-18T03:36:37.477Z,100686.13
2024-02-18T03:39:23.953Z,100688.06
2024-02-18T03:42:10.399Z,100671.56
2024-02-18T03:44:57.471Z,100700.28
2024-02-18T03:47:47.705Z,100693.34
2024-02-18T03:50:34.157Z,100682.44
2024-02-18T03:53:20.499Z,100691.75
2024-02-18T03:56:09.787Z,100650.38
2024-02-18T03:58:57.965Z,100702.97
2024-02-18T04:01:44.487Z,100680.84
2024-02-18T04:04:31.108Z,100706.69
2024-02-18T04:07:17.471Z,100676.69
2024-02-18T04:10:05.262Z,100673.34
2024-02-18T04:12:51.991Z,100667.75
2024-02-18T04:15:38.498Z,100687.97
2024-02-18T04:18:25.249Z,100655.66
2024-02-18T04:21:11.752Z,100645.34
2024-02-18T04:23:58.248Z,100684.75
2024-02-18T04:26:44.620Z,100662.84
2024-02-18T04:29:30.973Z,100660.28
2024-02-18T04:32:17.571Z,100661.66
2024-02-18T04:35:04.829Z,100648.22
2024-02-18T04:37:51.389Z,100660.19
2024-02-18T04:40:38.188Z,100654.78
2024-02-18T04:43:24.753Z,100643.88
2024-02-18T04:46:11.293Z,100665.41
2024-02-18T04:48:57.658Z,100624.88
2024-02-18T04:51:44.191Z,100685.72
2024-02-18T04:54:30.614Z,100655.09
2024-02-18T04:57:17.498Z,100671.41
2024-02-18T05:00:06.415Z,100674.28
2024-02-18T05:02:53.054Z,100627.75
2024-02-18T05:05:39.493Z,100654.50
2024-02-18T05:08:25.850Z,100658.06
2024-02-18T05:11:12.016Z,100652.78
2024-02-18T05:14:01.104Z,100645.75
2024-02-18T05:16:47.729Z,100656.34
2024-02-18T05:19:34.150Z,100641.03
2024-02-18T05:22:20.375Z,100614.44
2024-02-18T05:25:07.455Z,100606.53
2024-02-18T05:27:53.622Z,100649.88
2024-02-18T05:30:40.323Z,100671.56
2024-02-18T05:33:26.714Z,100654.78
2024-02-18T05:36:13.117Z,100631.81
2024-02-18T05:38:59.344Z,100626.75
2024-02-18T05:41:45.800Z,100614.44
2024-02-18T05:44:32.389Z,100637.88
2024-02-18T05:47:18.708Z,100620.13
2024-02-18T05:50:05.828Z,100622.75
2024-02-18T05:52:52.292Z,100617.41
2024-02-18T05:55:38.585Z,100616.53
2024-02-18T05:58:25.033Z,100611.81
2024-02-18T06:01:11.661Z,100590.31
2024-02-18T06:03:58.415Z,100647.72
2024-02-18T06:06:44.896Z,100597.84
2024-02-18T06:09:31.532Z,100615.13
2024-02-18T06:12:18.673Z,100631.97
2024-02-18T06:15:06.440Z,100619.28
2024-02-18T06:17:58.136Z,100572.28
2024-02-18T06:20:46.296Z,100625.09
2024-02-18T06:23:32.685Z,100600.88
2024-02-18T06:26:18.968Z,100615.91
2024-02-18T06:29:05.219Z,100637.13
2024-02-18T06:31:53.470Z,100594.16
2024-02-18T06:34:40.399Z,100600.41
2024-02-18T06:37:26.746Z,100603.28
2024-02-18T06:40:13.417Z,100612.09
2024-02-18T06:43:00.099Z,100644.19
2024-02-18T06:45:46.893Z,100597.72
2024-02-18T06:48:33.463Z,100616.53
2024-02-18T06:51:20.047Z,100578.28
2024-02-18T06:54:06.642Z,100609.44
2024-02-18T06:56:53.071Z,100593.84
2024-02-18T06:59:39.606Z,100601.66
2024-02-18T07:02:26.130Z,100614.38
2024-02-18T07:05:12.988Z,100552.28
2024-02-18T07:07:59.818Z,100561.75
2024-02-18T07:10:46.567Z,100600.94
2024-02-18T07:13:32.720Z,100581.69
2024-02-18T07:16:20.685Z,100613.53
2024-02-18T07:19:09.139Z,100496.75
2024-02-18T07:21:55.632Z,100554.16
2024-02-18T07:24:42.454Z,100572.66
2024-02-18T07:27:28.774Z,100614.06
2024-02-18T07:30:15.750Z,100605.06
2024-02-18T07:33:03.102Z,100584.91
2024-02-18T07:35:49.635Z,100604.53
2024-02-18T07:38:37.225Z,100622.22
2024-02-18T07:41:25.271Z,100613.84
2024-02-18T07:44:11.812Z,100616.47
2024-02-18T07:46:59.272Z,100560.75
2024-02-18T07:49:47.485Z,100614.09
2024-02-18T07:52:33.849Z,100550.03
2024-02-18T07:55:21.084Z,100580.38
2024-02-18T07:58:07.733Z,100590.34
2024-02-18T08:00:54.129Z,100607.63
2024-02-18T08:03:40.731Z,100573.16
2024-02-18T08:06:30.588Z,100560.81
2024-02-18T08:09:17.230Z,100557.16
2024-02-18T08:12:04.017Z,100605.59
2024-02-18T08:14:50.526Z,100560.91
2024-02-18T08:17:36.755Z,100552.59
2024-02-18T08:20:23.507Z,100549.78
2024-02-18T08:23:10.157Z,100584.13
2024-02-18T08:25:56.706Z,100495.75
2024-02-18T08:28:43.273Z,100558.69
2024-02-18T08:31:29.894Z,100552.19
2024-02-18T08:34:16.155Z,100563.44
2024-02-18T08:37:04.376Z,100536.22
2024-02-18T08:39:50.839Z,100555.94
2024-02-18T08:42:38.095Z,100539.03
2024-02-18T08:45:24.310Z,100461.19
2024-02-18T08:48:11.824Z,100525.13
2024-02-18T08:50:58.198Z,100569.16
2024-02-18T08:53:45.006Z,100556.41
2024-02-18T08:56:31.586Z,100516.72
2024-02-18T08:59:18.019Z,100502.41
2024-02-18T09:02:07.070Z,100521.66
2024-02-18T09:04:54.004Z,100458.69
2024-02-18T09:07:40.583Z,100523.28
2024-02-18T09:10:27.371Z,100460.56
2024-02-18T09:13:15.375Z,100439.63
2024-02-18T09:16:01.961Z,100566.50
2024-02-18T09:22:14.779Z,100455.72
2024-02-18T09:25:01.121Z,100491.47
2024-02-18T09:27:48.019Z,100473.66
2024-02-18T09:30:34.965Z,100477.69
2024-02-18T09:33:21.725Z,100484.78
2024-02-18T09:36:08.514Z,100443.88
2024-02-18T09:38:57.587Z,100480.78
2024-02-18T09:42:10.243Z,100517.72
2024-02-18T09:44:57.807Z,100527.28
2024-02-18T09:47:45.401Z,100326.03
2024-02-18T09:50:35.757Z,100390.22
2024-02-18T09:53:24.916Z,100222.97
2024-02-18T09:56:11.844Z,100303.72
2024-02-18T09:58:58.134Z,100491.16
2024-02-18T10:01:47.120Z,100455.56
2024-02-18T10:05:26.923Z,100481.16
2024-02-18T10:08:13.669Z,100252.22
2024-02-18T10:11:00.484Z,100361.63
2024-02-18T10:13:48.125Z,100484.94
2024-02-18T10:16:37.759Z,100458.09
2024-02-18T10:19:38.082Z,100385.16
2024-02-18T10:22:25.700Z,100377.22
2024-02-18T10:25:12.106Z,100393.09
2024-02-18T10:27:59.310Z,100464.09
2024-02-18T10:30:46.167Z,100449.38
2024-02-18T10:33:33.120Z,100458.31
2024-02-18T10:36:20.826Z,100390.31
2024-02-18T10:39:14.876Z,100430.25
2024-02-18T10:42:07.666Z,100397.34
2024-02-18T10:44:58.140Z,100392.41
2024-02-18T10:47:56.274Z,100349.78
2024-02-18T10:50:50.959Z,100379.75
2024-02-18T10:53:56.117Z,100377.09
2024-02-18T10:56:42.891Z,100404.44
2024-02-18T10:59:57.653Z,100405.41
2024-02-18T11:02:59.343Z,100403.75
2024-02-18T11:05:47.384Z,100377.63
2024-02-18T11:08:35.833Z,100382.97
2024-02-18T11:11:23.489Z,100363.81
2024-02-18T11:14:11.701Z,100342.25
2024-02-18T11:16:59.999Z,100343.38
2024-02-18T11:19:48.113Z,100330.28
2024-02-18T11:22:34.693Z,100330.53
2024-02-18T11:25:23.773Z,100303.66
2024-02-18T11:28:10.888Z,100354.22
2024-02-18T11:30:57.488Z,100317.75
2024-02-18T11:33:44.230Z,100297.06
2024-02-18T11:36:30.911Z,100309.06
2024-02-18T11:39:17.257Z,100328.06
2024-02-18T11:42:15.507Z,100271.66
2024-02-18T11:45:13.573Z,100307.44
2024-02-18T11:48:03.759Z,100250.94
2024-02-18T11:50:50.124Z,100307.59
2024-02-18T11:53:36.607Z,100245.84
2024-02-18T11:56:23.054Z,100292.78
2024-02-18T11:59:09.790Z,100238.09
2024-02-18T12:01:56.378Z,100270.31
2024-02-18T12:04:43.540Z,100227.72
2024-02-18T12:07:30.129Z,100231.16
2024-02-18T12:10:20.894Z,100237.34
2024-02-18T12:13:07.474Z,100234.81
2024-02-18T12:15:54.537Z,100262.50
2024-02-18T12:18:41.323Z,100258.94
2024-02-18T12:21:28.137Z,100208.63
2024-02-18T12:24:15.097Z,100252.09
2024-02-18T12:27:01.674Z,100218.25
2024-02-18T12:29:50.523Z,100248.75
2024-02-18T12:32:37.516Z,100239.16
2024-02-18T12:35:24.667Z,100214.72
2024-02-18T12:38:11.212Z,100159.19
2024-02-18T12:40:57.696Z,100200.78
2024-02-18T12:44:26.337Z,100197.81
2024-02-18T12:46:58.991Z,100225.00
2024-02-18T12:49:46.391Z,100180.66
2024-02-18T12:52:33.306Z,100189.44
2024-02-18T12:55:23.974Z,100184.25
2024-02-18T12:58:10.682Z,100206.91
2024-02-18T13:00:57.185Z,100224.16
2024-02-18T13:03:49.397Z,100236.38
2024-02-18T13:06:36.670Z,100217.13
2024-02-18T13:09:27.181Z,100170.09
2024-02-18T13:12:13.806Z,100101.53
2024-02-18T13:15:00.336Z,100218.84
2024-02-18T13:17:52.502Z,100192.94
2024-02-18T13:20:39.159Z,100180.78
2024-02-18T13:23:25.709Z,100174.84
2024-02-18T13:26:11.986Z,100183.59
2024-02-18T13:28:58.509Z,100189.72
2024-02-18T13:31:45.497Z,100188.84
2024-02-18T13:34:32.520Z,100165.28
2024-02-18T13:37:19.045Z,100158.41
2024-02-18T13:40:07.669Z,100101.03
2024-02-18T13:42:54.105Z,100093.28
2024-02-18T13:45:40.956Z,100076.59
2024-02-18T13:48:27.810Z,100095.72
2024-02-18T13:51:14.553Z,100086.25
2024-02-18T13:54:01.867Z,100097.66
2024-02-18T13:56:48.360Z,100135.81
2024-02-18T13:59:35.756Z,100116.75
2024-02-18T14:02:22.133Z,100091.53
2024-02-18T14:05:10.897Z,100135.78
2024-02-18T14:07:57.968Z,100102.94
2024-02-18T14:10:44.222Z,100056.91
2024-02-18T14:13:31.213Z,100071.75
2024-02-18T14:16:24.452Z,100098.53
2024-02-18T14:19:21.157Z,100071.63
2024-02-18T14:22:30.563Z,100123.78
2024-02-18T14:25:21.505Z,100123.59
2024-02-18T14:28:11.212Z,100115.81
2024-02-18T14:30:57.883Z,100097.59
2024-02-18T14:33:44.272Z,100097.63
2024-02-18T14:36:30.727Z,100094.91
2024-02-18T14:39:17.241Z,100085.25
2024-02-18T14:42:03.786Z,100076.41
2024-02-18T14:44:51.068Z,100056.38
2024-02-18T14:47:38.272Z,100107.63
2024-02-18T14:50:27.304Z,100012.84
2024-02-18T14:53:15.498Z,100049.34
2024-02-18T14:56:02.019Z,100095.34
2024-02-18T14:58:48.571Z,100052.47
2024-02-18T15:01:35.334Z,100060.09
2024-02-18T15:04:21.586Z,100038.19
2024-02-18T15:07:09.831Z,100055.50
2024-02-18T15:09:56.540Z,100052.78
2024-02-18T15:12:43.107Z,100028.41
2024-02-18T15:15:29.710Z,100070.09
2024-02-18T15:18:18.531Z,100077.97
2024-02-18T15:21:04.856Z,100029.16
2024-02-18T15:23:51.085Z,100052.81
2024-02-18T15:26:38.530Z,100009.31
2024-02-18T15:29:31.596Z,99896.31
2024-02-18T15:32:21.124Z,100027.31
2024-02-18T15:35:08.441Z,99924.13
2024-02-18T15:37:55.620Z,99823.25
2024-02-18T15:40:42.102Z,99958.91
2024-02-18T15:43:30.765Z,99962.91
2024-02-18T15:49:55.825Z,100010.81
2024-02-18T15:52:45.407Z,99948.13
2024-02-18T15:55:42.310Z,100064.53
2024-02-18T15:58:37.260Z,100004.72
2024-02-18T16:01:23.794Z,100061.06
2024-02-18T16:04:10.570Z,100041.03
2024-02-18T16:06:57.124Z,99987.03
2024-02-18T16:09:51.324Z,100000.13
2024-02-18T16:12:37.697Z,99996.22
2024-02-18T16:15:23.997Z,99986.69
2024-02-18T16:18:10.563Z,100025.81
2024-02-18T16:20:57.012Z,100020.38
2024-02-18T16:23:45.880Z,100021.94
2024-02-18T16:26:36.316Z,100013.31
2024-02-18T16:29:24.651Z,99989.72
2024-02-18T16:32:13.164Z,100000.81
2024-02-18T16:34:59.837Z,99999.00
2024-02-18T16:37:46.554Z,99995.66
2024-02-18T16:40:33.689Z,99996.59
2024-02-18T16:43:20.039Z,99990.31
2024-02-18T16:46:07.653Z,100011.97
2024-02-18T16:48:54.051Z,99986.53
2024-02-18T16:51:45.274Z,99988.09
2024-02-18T16:54:32.281Z,99981.13
2024-02-18T17:00:06.538Z,99996.56
2024-02-18T17:02:53.123Z,100020.16
2024-02-18T17:05:39.464Z,100038.38
2024-02-18T17:08:26.332Z,99981.81
2024-02-18T17:11:15.368Z,100031.53
2024-02-18T17:14:04.280Z,100031.41
2024-02-18T17:16:50.849Z,100001.59
2024-02-18T17:19:38.240Z,100024.25
2024-02-18T17:22:24.636Z,100031.16
2024-02-18T17:25:11.878Z,100007.81
2024-02-18T17:27:59.442Z,99991.19
2024-02-18T17:30:45.970Z,100030.22
2024-02-18T17:33:34.883Z,100004.19
2024-02-18T17:36:22.046Z,99971.25
2024-02-18T17:39:09.572Z,99942.69
2024-02-18T17:41:56.151Z,100025.56
2024-02-18T17:44:42.756Z,100015.84
2024-02-18T17:47:29.593Z,100000.13
2024-02-18T17:50:16.137Z,99989.53
2024-02-18T17:53:02.761Z,100025.78
2024-02-18T17:55:49.300Z,99995.16
2024-02-18T17:58:36.279Z,100037.06
2024-02-18T18:01:23.343Z,100002.91
2024-02-18T18:04:09.968Z,100029.00
2024-02-18T18:06:56.649Z,100006.34
2024-02-18T18:09:43.365Z,100023.78
2024-02-18T18:12:29.822Z,100004.84
2024-02-18T18:15:20.623Z,99964.75
2024-02-18T18:18:07.748Z,100021.25
2024-02-18T18:20:54.256Z,100018.59
2024-02-18T18:23:41.138Z,100018.47
2024-02-18T18:26:27.648Z,100022.84
2024-02-18T18:29:13.908Z,99973.34
2024-02-18T18:32:00.206Z,100000.16
2024-02-18T18:34:46.723Z,100016.63
2024-02-18T18:37:33.157Z,99996.97
2024-02-18T18:40:20.251Z,100001.50
2024-02-18T18:43:10.444Z,99973.00
2024-02-18T18:45:56.611Z,99992.78
2024-02-18T18:48:43.466Z,99989.25
2024-02-18T18:51:30.332Z,100028.22
2024-02-18T18:54:16.788Z,99998.53
2024-02-18T18:57:03.269Z,99986.91
2024-02-18T18:59:49.892Z,100022.31
2024-02-18T19:02:37.224Z,100012.44
2024-02-18T19:05:24.721Z,100026.06
2024-02-18T19:08:11.559Z,100003.50
2024-02-18T19:10:59.813Z,99978.94
2024-02-18T19:13:47.829Z,99985.88
2024-02-18T19:16:35.274Z,100009.03
2024-02-18T19:19:24.196Z,100016.19
2024-02-18T19:22:16.175Z,99966.41
2024-02-18T19:25:02.729Z,99985.47
2024-02-18T19:27:49.140Z,100005.28
2024-02-18T19:30:35.695Z,99994.06
2024-02-18T19:33:22.018Z,99972.41
2024-02-18T19:36:08.707Z,100002.09
2024-02-18T19:38:55.791Z,99972.09
2024-02-18T19:41:43.539Z,99989.53
2024-02-18T19:44:30.684Z,99967.56
2024-02-18T19:47:18.221Z,99965.31
2024-02-18T19:50:05.593Z,99978.13
2024-02-18T19:52:51.759Z,99957.28
2024-02-18T19:55:39.874Z,99961.44
2024-02-18T19:58:26.626Z,99984.13
2024-02-18T20:01:13.486Z,99973.81
2024-02-18T20:04:00.409Z,99957.25
2024-02-18T20:06:47.192Z,99971.09
2024-02-18T20:09:34.112Z,99976.47
2024-02-18T20:12:20.740Z,99963.25
2024-02-18T20:15:07.596Z,99992.84
2024-02-18T20:17:53.911Z,99965.06
2024-02-18T20:20:40.535Z,99977.88
2024-02-18T20:23:27.001Z,99985.03
2024-02-18T20:26:20.249Z,100000.41
2024-02-18T20:29:06.712Z,99996.16
2024-02-18T20:31:53.259Z,99990.00
2024-02-18T20:34:43.288Z,99981.44
2024-02-18T20:37:31.013Z,99954.25
2024-02-18T20:40:20.614Z,99968.13
2024-02-18T20:43:07.030Z,100000.47
2024-02-18T20:45:53.687Z,99965.75
2024-02-18T20:48:40.322Z,99951.09
2024-02-18T20:51:30.578Z,99953.81
2024-02-18T20:54:17.613Z,99925.91
2024-02-18T20:57:04.872Z,99946.94
2024-02-18T20:59:51.191Z,99984.50
2024-02-18T21:02:37.615Z,100002.50
2024-02-18T21:05:23.868Z,99988.81
2024-02-18T21:08:10.368Z,100003.75
2024-02-18T21:10:57.255Z,99992.59
2024-02-18T21:13:43.968Z,99954.50
2024-02-18T21:16:30.401Z,99980.47
2024-02-18T21:19:18.791Z,99901.69
2024-02-18T21:22:05.372Z,99983.47
2024-02-18T21:24:55.655Z,99961.72
2024-02-18T21:27:42.134Z,99936.84
2024-02-18T21:30:28.397Z,99993.00
2024-02-18T21:33:19.677Z,100019.81
2024-02-18T21:36:07.669Z,99979.53
2024-02-18T21:38:54.683Z,99962.22
2024-02-18T21:41:45.707Z,99988.47
2024-02-18T21:44:32.626Z,99998.84
2024-02-18T21:47:19.120Z,99975.31
2024-02-18T21:50:05.826Z,99951.75
2024-02-18T21:52:54.771Z,99957.16
2024-02-18T21:55:41.190Z,99961.38
2024-02-18T21:58:29.260Z,99979.78
2024-02-18T22:01:15.831Z,99959.69
2024-02-18T22:04:03.053Z,99959.50
2024-02-18T22:07:04.167Z,99981.22
2024-02-18T22:09:55.988Z,99992.28
2024-02-18T22:12:42.490Z,99966.47
2024-02-18T22:15:29.231Z,100008.97
2024-02-18T22:18:16.599Z,99969.19
2024-02-18T22:21:03.358Z,99979.34
2024-02-18T22:23:49.875Z,99978.81
2024-02-18T22:26:40.210Z,99986.66
2024-02-18T22:29:26.689Z,99978.09
2024-02-18T22:32:12.869Z,99909.19
2024-02-18T22:34:59.481Z,99912.53
2024-02-18T22:37:45.760Z,99944.88
2024-02-18T22:40:32.344Z,99940.75
2024-02-18T22:43:20.373Z,99916.34
2024-02-18T22:46:06.758Z,99938.88
2024-02-18T22:48:53.383Z,99966.78
2024-02-18T22:51:41.409Z,99932.78
2024-02-18T22:54:27.878Z,99974.38
2024-02-18T22:57:14.702Z,99968.25
2024-02-18T23:00:01.286Z,99950.31
2024-02-18T23:02:48.148Z,99918.16
2024-02-18T23:05:34.918Z,99975.69
2024-02-18T23:08:21.397Z,99959.13
2024-02-18T23:11:08.853Z,99936.53
2024-02-18T23:13:55.339Z,99954.88
2024-02-18T23:16:41.627Z,99956.72
2024-02-18T23:19:28.344Z,99935.03
2024-02-18T23:22:14.786Z,99928.88
2024-02-18T23:25:01.553Z,99956.84
2024-02-18T23:27:47.879Z,99994.25
2024-02-18T23:30:34.139Z,99995.28
2024-02-18T23:33:23.639Z,99957.00
2024-02-18T23:36:10.272Z,99953.63
2024-02-18T23:38:57.669Z,99953.50
2024-02-18T23:41:43.929Z,99988.50
2024-02-18T23:44:30.472Z,99998.97
2024-02-18T23:47:16.696Z,100002.44
2024-02-18T23:50:03.266Z,99993.47
2024-02-18T23:52:49.756Z,99985.09
2024-02-18T23:55:37.866Z,100002.53
2024-02-18T23:58:24.165Z,99998.88
